createdAt,value
2018-06-21T00:00:01.869Z,19.10
2018-06-21T00:02:31.107Z,19.10
2018-06-21T00:05:00.317Z,19.10
2018-06-21T00:07:29.574Z,19.10
2018-06-21T00:09:58.739Z,19.00
2018-06-21T00:12:28.020Z,19.00
2018-06-21T00:14:57.307Z,19.00
2018-06-21T00:17:26.602Z,19.00
2018-06-21T00:19:55.819Z,18.90
2018-06-21T00:22:25.015Z,18.90
2018-06-21T00:24:54.238Z,18.90
2018-06-21T00:27:23.450Z,18.90
2018-06-21T00:29:52.663Z,18.90
2018-06-21T00:32:21.914Z,18.90
2018-06-21T00:34:51.193Z,18.90
2018-06-21T00:37:20.421Z,18.80
2018-06-21T00:39:49.696Z,18.80
2018-06-21T00:42:18.973Z,18.80
2018-06-21T00:44:48.253Z,18.80
2018-06-21T00:47:17.479Z,18.80
2018-06-21T00:49:46.663Z,18.80
2018-06-21T00:52:15.859Z,18.70
2018-06-21T00:54:45.055Z,18.70
2018-06-21T00:59:43.232Z,18.60
2018-06-21T01:02:12.453Z,18.60
2018-06-21T01:04:41.730Z,18.60
2018-06-21T01:07:10.955Z,18.50
2018-06-21T01:09:40.147Z,18.50
2018-06-21T01:12:09.349Z,18.40
2018-06-21T01:14:38.602Z,18.40
2018-06-21T01:17:07.864Z,18.30
2018-06-21T01:19:37.103Z,18.40
2018-06-21T01:22:06.547Z,18.30
2018-06-21T01:24:35.863Z,18.30
2018-06-21T01:27:05.183Z,18.20
2018-06-21T01:29:34.473Z,18.20
2018-06-21T01:32:03.780Z,18.20
2018-06-21T01:34:33.035Z,18.10
2018-06-21T01:37:02.273Z,18.10
2018-06-21T01:39:31.719Z,18.10
2018-06-21T01:42:00.935Z,18.10
2018-06-21T01:44:30.293Z,18.10
2018-06-21T01:46:59.519Z,18.10
2018-06-21T01:49:28.798Z,18.10
2018-06-21T01:51:58.000Z,18.00
2018-06-21T01:54:27.374Z,18.00
2018-06-21T01:56:56.610Z,18.00
2018-06-21T01:59:25.867Z,18.00
2018-06-21T02:04:24.100Z,18.00
2018-06-21T02:06:53.379Z,18.00
2018-06-21T02:09:22.734Z,18.00
2018-06-21T02:11:52.034Z,18.00
2018-06-21T02:14:21.350Z,18.00
2018-06-21T02:16:50.606Z,17.90
2018-06-21T02:19:20.106Z,17.90
2018-06-21T02:21:49.374Z,17.90
2018-06-21T02:24:18.594Z,17.90
2018-06-21T02:29:16.833Z,17.80
2018-06-21T02:31:46.029Z,17.70
2018-06-21T02:34:15.249Z,17.70
2018-06-21T02:36:44.422Z,17.70
2018-06-21T02:39:13.652Z,17.70
2018-06-21T02:41:42.923Z,17.70
2018-06-21T02:44:12.140Z,17.70
2018-06-21T02:46:41.358Z,17.70
2018-06-21T02:49:10.570Z,17.60
2018-06-21T02:51:39.744Z,17.60
2018-06-21T02:54:08.976Z,17.60
2018-06-21T02:56:38.163Z,17.60
2018-06-21T02:59:07.710Z,17.60
2018-06-21T03:01:37.226Z,17.60
2018-06-21T03:04:06.544Z,17.50
2018-06-21T03:06:35.711Z,17.50
2018-06-21T03:09:06.961Z,17.50
2018-06-21T03:14:05.360Z,17.50
2018-06-21T03:16:34.699Z,17.50
2018-06-21T03:19:03.927Z,17.40
2018-06-21T03:21:33.181Z,17.40
2018-06-21T03:24:02.391Z,17.40
2018-06-21T03:26:31.703Z,17.40
2018-06-21T03:29:00.943Z,17.40
2018-06-21T03:31:30.194Z,17.40
2018-06-21T03:33:59.443Z,17.30
2018-06-21T03:36:28.680Z,17.30
2018-06-21T03:38:57.908Z,17.30
2018-06-21T03:41:27.187Z,17.30
2018-06-21T03:43:56.516Z,17.30
2018-06-21T03:46:25.860Z,17.30
2018-06-21T03:48:55.544Z,17.30
2018-06-21T03:51:26.379Z,17.30
2018-06-21T03:53:55.617Z,17.30
2018-06-21T03:56:24.848Z,17.30
2018-06-21T03:58:54.260Z,17.40
2018-06-21T04:01:23.571Z,17.40
2018-06-21T04:03:52.928Z,17.50
2018-06-21T04:06:22.342Z,17.50
2018-06-21T04:08:51.558Z,17.60
2018-06-21T04:11:20.852Z,17.60
2018-06-21T04:13:50.215Z,17.70
2018-06-21T04:18:48.807Z,17.80
2018-06-21T04:21:18.083Z,17.80
2018-06-21T04:23:47.306Z,17.90
2018-06-21T04:26:16.583Z,18.00
2018-06-21T04:28:45.810Z,18.00
2018-06-21T04:31:15.087Z,18.10
2018-06-21T04:33:44.339Z,18.20
2018-06-21T04:36:13.647Z,18.30
2018-06-21T04:38:42.906Z,18.40
2018-06-21T04:41:12.158Z,18.60
2018-06-21T04:43:41.556Z,18.80
2018-06-21T04:46:10.823Z,20.00
2018-06-21T04:48:40.102Z,22.20
2018-06-21T04:53:38.395Z,25.80
2018-06-21T04:56:07.635Z,26.40
2018-06-21T04:58:37.463Z,26.30
2018-06-21T05:01:06.792Z,25.90
2018-06-21T05:03:36.090Z,25.60
2018-06-21T05:06:05.638Z,25.70
2018-06-21T05:08:34.931Z,26.20
2018-06-21T05:11:04.230Z,26.40
2018-06-21T05:13:32.514Z,26.60
2018-06-21T05:16:01.769Z,26.10
2018-06-21T05:18:30.989Z,25.40
2018-06-21T05:21:00.186Z,25.30
2018-06-21T05:23:29.394Z,26.50
2018-06-21T05:25:58.674Z,28.40
2018-06-21T05:28:28.003Z,30.10
2018-06-21T05:30:57.304Z,31.00
2018-06-21T05:33:26.605Z,32.10
2018-06-21T05:35:55.928Z,32.50
2018-06-21T05:38:25.245Z,33.10
2018-06-21T05:40:55.121Z,33.80
2018-06-21T05:43:24.374Z,33.50
2018-06-21T05:45:53.663Z,33.90
2018-06-21T05:48:22.925Z,34.30
2018-06-21T05:50:52.207Z,34.80
2018-06-21T05:53:21.563Z,34.70
2018-06-21T05:55:50.860Z,34.80
2018-06-21T05:58:20.126Z,34.40
2018-06-21T06:00:49.463Z,34.20
2018-06-21T06:03:18.788Z,34.10
2018-06-21T06:05:48.104Z,34.30
2018-06-21T06:08:17.841Z,34.30
2018-06-21T06:10:47.038Z,34.00
2018-06-21T06:13:16.157Z,34.00
2018-06-21T06:15:45.314Z,34.30
2018-06-21T06:18:14.650Z,34.50
2018-06-21T06:20:43.878Z,34.70
2018-06-21T06:23:13.296Z,34.90
2018-06-21T06:25:42.511Z,34.80
2018-06-21T06:28:11.858Z,34.90
2018-06-21T06:30:41.122Z,34.90
2018-06-21T06:33:10.350Z,34.90
2018-06-21T06:38:08.657Z,34.80
2018-06-21T06:40:37.877Z,34.30
2018-06-21T06:43:07.176Z,34.10
2018-06-21T06:45:36.456Z,34.30
2018-06-21T06:48:06.379Z,34.10
2018-06-21T06:50:35.678Z,33.90
2018-06-21T06:53:04.951Z,33.10
2018-06-21T06:55:34.295Z,32.70
2018-06-21T06:58:03.548Z,32.50
2018-06-21T07:00:32.828Z,32.30
2018-06-21T07:03:02.101Z,31.50
2018-06-21T07:05:31.503Z,30.20
2018-06-21T07:08:00.823Z,29.00
2018-06-21T07:10:30.084Z,28.10
2018-06-21T07:12:59.371Z,27.70
2018-06-21T07:15:28.687Z,27.50
2018-06-21T07:17:58.048Z,27.50
2018-06-21T07:20:27.404Z,27.50
2018-06-21T07:23:03.076Z,27.30
2018-06-21T07:25:32.375Z,27.00
2018-06-21T07:28:01.757Z,26.80
2018-06-21T07:30:31.120Z,26.90
2018-06-21T07:33:00.402Z,26.80
2018-06-21T07:35:29.647Z,26.70
2018-06-21T07:37:58.983Z,26.90
2018-06-21T07:40:28.271Z,26.90
2018-06-21T07:42:57.586Z,27.10
2018-06-21T07:47:55.983Z,27.30
2018-06-21T07:50:25.275Z,27.30
2018-06-21T07:52:54.690Z,27.10
2018-06-21T07:55:24.091Z,27.10
2018-06-21T07:57:53.543Z,26.90
2018-06-21T08:00:22.929Z,26.90
2018-06-21T08:02:52.291Z,26.80
2018-06-21T08:05:21.804Z,26.90
2018-06-21T08:07:51.189Z,26.90
2018-06-21T08:10:20.585Z,26.80
2018-06-21T08:12:49.964Z,26.90
2018-06-21T08:15:19.267Z,26.90
2018-06-21T08:17:48.749Z,27.10
2018-06-21T08:20:18.100Z,27.20
2018-06-21T08:22:47.525Z,27.00
2018-06-21T08:25:16.823Z,27.10
2018-06-21T08:27:46.347Z,27.10
2018-06-21T08:30:15.816Z,26.80
2018-06-21T08:32:45.187Z,26.60
2018-06-21T08:35:14.667Z,26.50
2018-06-21T08:37:44.081Z,26.50
2018-06-21T08:40:13.492Z,26.30
2018-06-21T08:42:42.804Z,26.00
2018-06-21T08:45:12.163Z,26.10
2018-06-21T08:47:41.466Z,26.10
2018-06-21T08:50:10.760Z,26.20
2018-06-21T08:52:40.066Z,26.30
2018-06-21T08:55:09.455Z,26.50
2018-06-21T08:57:38.794Z,26.50
2018-06-21T09:00:08.176Z,26.60
2018-06-21T09:05:06.987Z,26.40
2018-06-21T09:07:36.356Z,26.30
2018-06-21T09:10:05.719Z,26.10
2018-06-21T09:12:37.526Z,26.20
2018-06-21T09:15:10.123Z,26.30
2018-06-21T09:17:39.515Z,26.30
2018-06-21T09:20:08.830Z,26.20
2018-06-21T09:22:38.078Z,26.10
2018-06-21T09:25:07.392Z,26.20
2018-06-21T09:27:36.675Z,26.50
2018-06-21T09:30:06.047Z,26.80
2018-06-21T09:32:35.295Z,27.00
2018-06-21T09:35:04.629Z,27.20
2018-06-21T09:37:39.151Z,26.90
2018-06-21T09:40:13.514Z,26.90
2018-06-21T09:46:33.876Z,26.20
2018-06-21T09:48:54.126Z,26.10
2018-06-21T09:51:23.407Z,26.20
2018-06-21T09:53:52.759Z,26.30
2018-06-21T09:56:22.030Z,26.30
2018-06-21T09:58:51.310Z,26.70
2018-06-21T10:01:20.757Z,27.00
2018-06-21T10:03:50.143Z,27.40
2018-06-21T10:06:19.903Z,27.30
2018-06-21T10:08:49.312Z,27.30
2018-06-21T10:11:18.807Z,27.20
2018-06-21T10:13:48.131Z,27.20
2018-06-21T10:16:17.579Z,27.30
2018-06-21T10:18:46.851Z,27.30
2018-06-21T10:21:16.293Z,27.40
2018-06-21T10:23:45.620Z,27.40
2018-06-21T10:26:14.943Z,27.50
2018-06-21T10:28:44.472Z,27.70
2018-06-21T10:31:13.862Z,27.80
2018-06-21T10:33:43.206Z,27.70
2018-06-21T10:36:12.567Z,27.70
2018-06-21T10:38:41.843Z,27.70
2018-06-21T10:41:11.220Z,27.50
2018-06-21T10:43:40.560Z,27.30
2018-06-21T10:46:09.964Z,27.00
2018-06-21T10:48:39.326Z,27.20
2018-06-21T10:51:08.746Z,27.40
2018-06-21T10:53:38.109Z,27.60
2018-06-21T10:56:07.398Z,27.40
2018-06-21T10:58:36.716Z,27.30
2018-06-21T11:01:12.859Z,27.40
2018-06-21T11:03:42.161Z,27.50
2018-06-21T11:06:11.516Z,27.30
2018-06-21T11:08:40.852Z,27.00
2018-06-21T11:13:39.387Z,26.90
2018-06-21T11:16:09.036Z,27.00
2018-06-21T11:18:38.353Z,27.10
2018-06-21T11:21:07.696Z,27.10
2018-06-21T11:23:36.977Z,27.00
2018-06-21T11:26:06.403Z,26.90
2018-06-21T11:28:35.716Z,26.50
2018-06-21T11:31:05.149Z,26.50
2018-06-21T11:33:34.503Z,27.00
2018-06-21T11:36:03.838Z,27.30
2018-06-21T11:38:33.187Z,27.40
2018-06-21T11:41:02.523Z,27.50
2018-06-21T11:43:31.891Z,27.70
2018-06-21T11:46:01.310Z,27.70
2018-06-21T11:48:30.680Z,27.40
2018-06-21T11:53:28.978Z,27.90
2018-06-21T11:55:58.456Z,27.90
2018-06-21T11:58:27.719Z,27.90
2018-06-21T12:00:57.070Z,27.90
2018-06-21T12:03:26.738Z,28.00
2018-06-21T12:05:56.005Z,27.90
2018-06-21T12:08:25.259Z,27.80
2018-06-21T12:10:54.586Z,27.80
2018-06-21T12:13:24.038Z,28.10
2018-06-21T12:15:53.435Z,28.00
2018-06-21T12:18:22.949Z,27.90
2018-06-21T12:20:52.376Z,27.80
2018-06-21T12:23:21.967Z,27.80
2018-06-21T12:25:51.415Z,27.70
2018-06-21T12:28:20.905Z,28.00
2018-06-21T12:30:50.409Z,28.20
2018-06-21T12:33:19.822Z,28.30
2018-06-21T12:35:49.273Z,28.40
2018-06-21T12:38:18.659Z,28.70
2018-06-21T12:40:48.986Z,28.60
2018-06-21T12:43:18.375Z,28.70
2018-06-21T12:45:47.920Z,28.70
2018-06-21T12:48:17.312Z,28.40
2018-06-21T12:50:46.820Z,28.30
2018-06-21T12:53:16.161Z,28.30
2018-06-21T12:55:45.696Z,27.90
2018-06-21T12:58:15.045Z,27.80
2018-06-21T13:00:44.685Z,27.70
2018-06-21T13:03:14.247Z,27.40
2018-06-21T13:05:43.798Z,27.30
2018-06-21T13:08:18.707Z,27.20
2018-06-21T13:11:04.975Z,27.20
2018-06-21T13:13:34.378Z,27.10
2018-06-21T13:16:03.751Z,27.00
2018-06-21T13:18:33.179Z,27.20
2018-06-21T13:21:02.552Z,27.30
2018-06-21T13:23:31.873Z,27.50
2018-06-21T13:26:01.212Z,27.30
2018-06-21T13:28:30.621Z,27.00
2018-06-21T13:33:29.064Z,26.80
2018-06-21T13:35:58.539Z,26.70
2018-06-21T13:38:27.934Z,26.70
2018-06-21T13:40:57.476Z,26.90
2018-06-21T13:43:26.962Z,26.70
2018-06-21T13:45:56.323Z,26.60
2018-06-21T13:48:25.781Z,26.80
2018-06-21T13:50:55.135Z,27.20
2018-06-21T13:53:24.655Z,27.20
2018-06-21T13:55:54.018Z,26.70
2018-06-21T13:58:23.562Z,26.40
2018-06-21T14:03:22.372Z,26.10
2018-06-21T14:05:51.858Z,25.90
2018-06-21T14:08:21.254Z,25.70
2018-06-21T14:10:50.581Z,25.60
2018-06-21T14:13:20.003Z,25.40
2018-06-21T14:15:49.440Z,24.90
2018-06-21T14:18:18.997Z,24.40
2018-06-21T14:23:17.505Z,24.50
2018-06-21T14:25:46.811Z,24.90
2018-06-21T14:28:16.092Z,25.10
2018-06-21T14:30:45.443Z,25.30
2018-06-21T14:33:14.916Z,25.20
2018-06-21T14:35:44.232Z,25.00
2018-06-21T14:38:18.407Z,25.00
2018-06-21T14:40:47.810Z,25.10
2018-06-21T14:43:17.232Z,25.50
2018-06-21T14:48:15.695Z,25.70
2018-06-21T14:50:45.033Z,25.70
2018-06-21T14:53:14.474Z,25.70
2018-06-21T14:55:43.800Z,25.10
2018-06-21T14:58:13.395Z,24.60
2018-06-21T15:00:42.675Z,24.50
2018-06-21T15:03:12.035Z,24.40
2018-06-21T15:05:41.251Z,24.30
2018-06-21T15:08:10.909Z,24.30
2018-06-21T15:10:40.122Z,24.50
2018-06-21T15:15:38.478Z,24.90
2018-06-21T15:18:07.771Z,25.20
2018-06-21T15:20:37.023Z,24.90
2018-06-21T15:23:06.511Z,24.80
2018-06-21T15:25:35.798Z,24.80
2018-06-21T15:28:05.142Z,24.60
2018-06-21T15:30:34.495Z,24.60
2018-06-21T15:35:32.781Z,24.50
2018-06-21T15:38:02.095Z,24.50
2018-06-21T15:40:31.503Z,24.40
2018-06-21T15:43:00.859Z,24.30
2018-06-21T15:45:30.245Z,24.10
2018-06-21T15:47:59.915Z,23.90
2018-06-21T15:50:29.194Z,23.70
2018-06-21T15:52:58.454Z,23.60
2018-06-21T15:55:27.634Z,23.40
2018-06-21T15:57:56.844Z,23.10
2018-06-21T16:00:26.086Z,23.10
2018-06-21T16:02:55.322Z,23.30
2018-06-21T16:05:24.523Z,23.60
2018-06-21T16:07:53.865Z,23.80
2018-06-21T16:10:23.075Z,23.70
2018-06-21T16:12:52.285Z,23.60
2018-06-21T16:15:21.538Z,23.40
2018-06-21T16:20:19.838Z,23.10
2018-06-21T16:22:49.094Z,22.90
2018-06-21T16:25:18.311Z,22.80
2018-06-21T16:27:47.512Z,22.60
2018-06-21T16:30:16.724Z,22.40
2018-06-21T16:32:46.196Z,22.20
2018-06-21T16:35:15.453Z,22.10
2018-06-21T16:37:44.643Z,22.00
2018-06-21T16:40:13.898Z,21.90
2018-06-21T16:42:43.082Z,21.80
2018-06-21T16:45:12.308Z,21.70
2018-06-21T16:47:41.528Z,21.50
2018-06-21T16:50:10.785Z,21.50
2018-06-21T16:55:12.507Z,21.50
2018-06-21T16:57:42.013Z,21.40
2018-06-21T17:00:11.191Z,21.40
2018-06-21T17:02:40.442Z,21.50
2018-06-21T17:05:09.678Z,21.60
2018-06-21T17:07:38.895Z,21.60
2018-06-21T17:10:08.121Z,21.70
2018-06-21T17:15:06.475Z,21.60
2018-06-21T17:17:35.845Z,21.60
2018-06-21T17:20:05.428Z,22.00
2018-06-21T17:25:03.941Z,22.60
2018-06-21T17:27:33.287Z,22.60
2018-06-21T17:30:02.806Z,22.70
2018-06-21T17:32:32.188Z,22.60
2018-06-21T17:35:01.465Z,22.70
2018-06-21T17:37:30.845Z,22.70
2018-06-21T17:40:00.114Z,22.70
2018-06-21T17:42:29.466Z,22.70
2018-06-21T17:44:58.707Z,22.50
2018-06-21T17:47:28.176Z,22.40
2018-06-21T17:49:57.658Z,22.40
2018-06-21T17:52:26.907Z,22.40
2018-06-21T17:54:56.459Z,22.10
2018-06-21T17:57:25.758Z,21.70
2018-06-21T17:59:55.056Z,21.30
2018-06-21T18:02:24.299Z,21.00
2018-06-21T18:04:53.578Z,20.80
2018-06-21T18:07:22.879Z,20.60
2018-06-21T18:09:52.150Z,20.40
2018-06-21T18:12:21.447Z,20.30
2018-06-21T18:14:50.736Z,20.20
2018-06-21T18:17:20.047Z,20.10
2018-06-21T18:19:49.275Z,20.10
2018-06-21T18:22:18.547Z,20.00
2018-06-21T18:24:47.840Z,20.00
2018-06-21T18:27:17.075Z,20.00
2018-06-21T18:29:46.483Z,19.80
2018-06-21T18:32:15.807Z,19.70
2018-06-21T18:34:45.123Z,19.50
2018-06-21T18:37:14.455Z,19.40
2018-06-21T18:39:43.722Z,19.20
2018-06-21T18:42:12.935Z,19.20
2018-06-21T18:44:42.131Z,19.10
2018-06-21T18:47:11.426Z,19.00
2018-06-21T18:49:40.687Z,18.90
2018-06-21T18:52:10.051Z,19.00
2018-06-21T18:54:39.323Z,19.00
2018-06-21T18:57:08.696Z,18.90
2018-06-21T18:59:37.927Z,18.90
2018-06-21T19:02:07.192Z,18.80
2018-06-21T19:04:36.498Z,18.80
2018-06-21T19:07:11.114Z,18.70
2018-06-21T19:10:48.455Z,18.70
2018-06-21T19:13:17.518Z,18.70
2018-06-21T19:15:46.708Z,18.70
2018-06-21T19:18:16.104Z,18.70
2018-06-21T19:20:45.350Z,18.60
2018-06-21T19:23:14.663Z,18.50
2018-06-21T19:25:44.083Z,18.40
2018-06-21T19:28:13.350Z,18.40
2018-06-21T19:30:42.576Z,18.40
2018-06-21T19:33:11.898Z,18.30
2018-06-21T19:35:41.200Z,18.20
2018-06-21T19:38:10.511Z,18.10
2018-06-21T19:40:39.949Z,18.10
2018-06-21T19:43:09.372Z,18.00
2018-06-21T19:45:38.781Z,17.90
2018-06-21T19:48:08.045Z,17.80
2018-06-21T19:50:37.363Z,17.70
2018-06-21T19:53:06.680Z,17.70
2018-06-21T19:58:05.341Z,17.60
2018-06-21T20:00:34.715Z,17.50
2018-06-21T20:03:04.009Z,17.50
2018-06-21T20:05:33.347Z,17.40
2018-06-21T20:08:02.676Z,17.40
2018-06-21T20:10:32.092Z,17.30
2018-06-21T20:13:01.414Z,17.20
2018-06-21T20:15:36.961Z,17.20
2018-06-21T20:18:06.306Z,17.20
2018-06-21T20:20:35.576Z,17.10
2018-06-21T20:23:04.806Z,17.00
2018-06-21T20:25:34.074Z,16.90
2018-06-21T20:28:03.392Z,16.80
2018-06-21T20:30:32.710Z,16.80
2018-06-21T20:33:01.901Z,16.70
2018-06-21T20:35:31.226Z,16.70
2018-06-21T20:38:00.496Z,16.70
2018-06-21T20:40:29.894Z,16.60
2018-06-21T20:42:59.235Z,16.50
2018-06-21T20:45:28.512Z,16.30
2018-06-21T20:47:57.813Z,16.20
2018-06-21T20:50:27.075Z,16.10
2018-06-21T20:52:56.511Z,16.00
2018-06-21T20:55:25.803Z,15.90
2018-06-21T20:57:55.096Z,15.70
2018-06-21T21:00:24.423Z,15.70
2018-06-21T21:02:53.745Z,15.60
2018-06-21T21:05:23.135Z,15.50
2018-06-21T21:07:52.476Z,15.40
2018-06-21T21:10:21.874Z,15.40
2018-06-21T21:12:51.249Z,15.20
2018-06-21T21:15:20.784Z,15.10
2018-06-21T21:17:50.158Z,15.10
2018-06-21T21:20:19.494Z,15.00
2018-06-21T21:22:48.992Z,14.90
2018-06-21T21:25:18.349Z,14.80
2018-06-21T21:30:16.700Z,14.70
2018-06-21T21:35:15.044Z,14.50
2018-06-21T21:37:44.339Z,14.40
2018-06-21T21:40:13.644Z,14.40
2018-06-21T21:42:42.967Z,14.40
2018-06-21T21:45:12.388Z,14.30
2018-06-21T21:47:41.690Z,14.30
2018-06-21T21:50:11.025Z,14.20
2018-06-21T21:52:40.318Z,14.10
2018-06-21T21:55:09.577Z,14.00
2018-06-21T21:57:38.900Z,13.90
2018-06-21T22:00:50.983Z,13.90
2018-06-21T22:03:20.219Z,13.80
2018-06-21T22:05:49.720Z,13.70
2018-06-21T22:08:19.144Z,13.60
2018-06-21T22:10:48.649Z,13.50
2018-06-21T22:13:18.133Z,13.50
2018-06-21T22:15:47.264Z,13.50
2018-06-21T22:18:16.579Z,13.40
2018-06-21T22:20:45.879Z,13.40
2018-06-21T22:23:15.170Z,13.30
2018-06-21T22:25:44.436Z,13.20
2018-06-21T22:28:13.694Z,13.20
2018-06-21T22:30:42.967Z,13.10
2018-06-21T22:33:12.224Z,13.10
2018-06-21T22:35:41.467Z,13.10
2018-06-21T22:38:10.739Z,13.00
2018-06-21T22:43:08.980Z,12.80
2018-06-21T22:45:38.260Z,12.70
2018-06-21T22:50:36.618Z,12.70
2018-06-21T22:53:05.895Z,12.60
2018-06-21T22:55:35.162Z,12.60
2018-06-21T22:58:04.464Z,12.50
2018-06-21T23:00:33.707Z,12.50
2018-06-21T23:03:02.918Z,12.40
2018-06-21T23:05:32.201Z,12.40
2018-06-21T23:08:01.341Z,12.40
2018-06-21T23:10:30.617Z,12.40
2018-06-21T23:12:59.879Z,12.40
2018-06-21T23:17:58.508Z,12.20
2018-06-21T23:20:27.805Z,12.30
2018-06-21T23:22:57.048Z,12.20
2018-06-21T23:25:26.332Z,12.20
2018-06-21T23:27:55.567Z,12.10
2018-06-21T23:30:24.831Z,12.10
2018-06-21T23:32:54.273Z,12.00
2018-06-21T23:35:23.603Z,12.00
2018-06-21T23:37:52.888Z,12.00
2018-06-21T23:40:22.231Z,11.90
2018-06-21T23:42:51.595Z,11.90
2018-06-21T23:45:20.939Z,11.80
2018-06-21T23:47:50.306Z,11.80
2018-06-21T23:50:20.027Z,11.70
2018-06-21T23:52:49.367Z,11.70
2018-06-21T23:55:18.688Z,11.70
2018-06-21T23:57:47.952Z,11.70
